PWSweather.com
Personal Weather Stations
Station Observations
CAMPIGIANO
Campi Bisenzio, FirenzeIT

Campi BisenzioFirenzeIT

Lat: 43.8175012, Lon: 11.1391085

Elevation: 106

Station Type: LaCrosse WS2350

Latest ConditionsUpdated 4:15:01 PM GMT+01:01 Saturday, Jul 4, 2015
Currently Today's Max Today's Min Today's Average
Temperature 97.0°F36.1°C 98.2°F36.8°C 73.9°F23.3°C 86.3°F30.2°C
Dew Point 69.4°F20.8°C 70.8°F21.6°C 61.4°F16.3°C 65.9°F18.8°C
Winds Calm Calm 1.2 mph N1.9 kmh N - 0.1 mph 0.2 kmh
Wind Gusts -- 2.3 mph3.7 kmh - -
Humidity 41% 66% 38% 52%
Pressure 30.03 in1016.9 mb 30.16 in1021.3 mb 30.03 in1016.9 mb -
Hour Temp Dew Point Humidity Winds Wind Gusts Pressure Precip Precip Rate Daily Precip Total
04:15 PM 97.0°F36.1°C 69.4°F20.8°C 41% Calm Calm -- 30.03 in1016.9 mb - 0.00 in0.0 mm 0.00 in0.0 mm
04:00 PM 97.3°F36.3°C 69.0°F20.6°C 40% 1.2 mph NE1.9 kmh NE 2.3 mph3.7 kmh 30.04 in1017.3 mb - 0.00 in0.0 mm 0.00 in0.0 mm
03:45 PM 97.5°F36.4°C 69.2°F20.7°C 40% Calm Calm -- 30.04 in1017.3 mb - 0.00 in0.0 mm 0.00 in0.0 mm
03:30 PM 97.5°F36.4°C 69.1°F20.6°C 40% Calm Calm -- 30.05 in1017.6 mb - 0.00 in0.0 mm 0.00 in0.0 mm
03:15 PM 97.7°F36.5°C 69.3°F20.7°C 40% Calm Calm -- 30.04 in1017.3 mb - 0.00 in0.0 mm 0.00 in0.0 mm
03:00 PM 97.5°F36.4°C 68.4°F20.2°C 39% 1.2 mph WNW1.9 kmh WNW -- 30.05 in1017.6 mb - 0.00 in0.0 mm 0.00 in0.0 mm
02:45 PM 97.3°F36.3°C 67.5°F19.7°C 38% 1.2 mph SSE1.9 kmh SSE 1.2 mph1.9 kmh 30.05 in1017.6 mb - 0.00 in0.0 mm 0.00 in0.0 mm
02:30 PM 97.3°F36.3°C 68.2°F20.1°C 39% Calm Calm -- 30.05 in1017.6 mb - 0.00 in0.0 mm 0.00 in0.0 mm
02:15 PM 97.7°F36.5°C 69.3°F20.7°C 40% Calm Calm -- 30.06 in1017.9 mb - 0.00 in0.0 mm 0.00 in0.0 mm
02:00 PM 97.3°F36.3°C 67.5°F19.7°C 38% Calm Calm -- 30.06 in1017.9 mb - 0.00 in0.0 mm 0.00 in0.0 mm
01:45 PM 97.9°F36.6°C 68.7°F20.4°C 39% Calm Calm -- 30.07 in1018.3 mb - 0.00 in0.0 mm 0.00 in0.0 mm
01:30 PM 98.2°F36.8°C 68.3°F20.2°C 38% Calm Calm -- 30.07 in1018.3 mb - 0.00 in0.0 mm 0.00 in0.0 mm
01:15 PM 97.5°F36.4°C 68.4°F20.2°C 39% Calm Calm -- 30.07 in1018.3 mb - 0.00 in0.0 mm 0.00 in0.0 mm
01:00 PM 97.5°F36.4°C 68.4°F20.2°C 39% Calm Calm -- 30.08 in1018.6 mb - 0.00 in0.0 mm 0.00 in0.0 mm
12:45 PM 97.7°F36.5°C 69.3°F20.7°C 40% Calm Calm -- 30.08 in1018.6 mb - 0.00 in0.0 mm 0.00 in0.0 mm
12:30 PM 97.3°F36.3°C 69.7°F20.9°C 41% Calm Calm 1.2 mph1.9 kmh 30.09 in1019.0 mb - 0.00 in0.0 mm 0.00 in0.0 mm
12:15 PM 96.6°F35.9°C 69.8°F21.0°C 42% Calm Calm -- 30.08 in1018.6 mb - 0.00 in0.0 mm 0.00 in0.0 mm
12:00 PM 96.3°F35.7°C 70.8°F21.6°C 44% Calm Calm -- 30.09 in1019.0 mb - 0.00 in0.0 mm 0.00 in0.0 mm
11:45 AM 96.1°F35.6°C 70.0°F21.1°C 43% Calm Calm 1.2 mph1.9 kmh 30.09 in1019.0 mb - 0.00 in0.0 mm 0.00 in0.0 mm
11:30 AM 95.9°F35.5°C 70.5°F21.4°C 44% Calm Calm 1.2 mph1.9 kmh 30.10 in1019.3 mb - 0.00 in0.0 mm 0.00 in0.0 mm
11:15 AM 94.8°F34.9°C 70.1°F21.2°C 45% Calm Calm -- 30.11 in1019.6 mb - 0.00 in0.0 mm 0.00 in0.0 mm
11:00 AM 95.2°F35.1°C 70.5°F21.4°C 45% Calm Calm -- 30.11 in1019.6 mb - 0.00 in0.0 mm 0.00 in0.0 mm
10:45 AM 94.8°F34.9°C 70.1°F21.2°C 45% Calm Calm -- 30.11 in1019.6 mb - 0.00 in0.0 mm 0.00 in0.0 mm
10:30 AM 93.4°F34.1°C 68.9°F20.5°C 45% Calm Calm -- 30.11 in1019.6 mb - 0.00 in0.0 mm 0.00 in0.0 mm
10:15 AM 92.8°F33.8°C 69.0°F20.6°C 46% Calm Calm -- 30.12 in1020.0 mb - 0.00 in0.0 mm 0.00 in0.0 mm
10:00 AM 92.2°F33.4°C 68.5°F20.3°C 46% Calm Calm -- 30.12 in1020.0 mb - 0.00 in0.0 mm 0.00 in0.0 mm
09:45 AM 91.4°F33.0°C 67.7°F19.8°C 46% Calm Calm -- 30.13 in1020.3 mb - 0.00 in0.0 mm 0.00 in0.0 mm
09:30 AM 91.3°F32.9°C 67.6°F19.8°C 46% Calm Calm -- 30.13 in1020.3 mb - 0.00 in0.0 mm 0.00 in0.0 mm
09:15 AM 89.9°F32.2°C 66.9°F19.4°C 47% Calm Calm -- 30.13 in1020.3 mb - 0.00 in0.0 mm 0.00 in0.0 mm
09:00 AM 87.7°F30.9°C 66.2°F19.0°C 49% Calm Calm -- 30.14 in1020.7 mb - 0.00 in0.0 mm 0.00 in0.0 mm
08:45 AM 87.2°F30.7°C 66.3°F19.1°C 50% Calm Calm -- 30.14 in1020.7 mb - 0.00 in0.0 mm 0.00 in0.0 mm
08:30 AM 86.2°F30.1°C 66.5°F19.2°C 52% Calm Calm -- 30.14 in1020.7 mb - 0.00 in0.0 mm 0.00 in0.0 mm
08:15 AM 85.2°F29.6°C 66.7°F19.3°C 54% Calm Calm -- 30.14 in1020.7 mb - 0.00 in0.0 mm 0.00 in0.0 mm
08:00 AM 84.0°F28.9°C 66.1°F18.9°C 55% Calm Calm -- 30.14 in1020.7 mb - 0.00 in0.0 mm 0.00 in0.0 mm
07:45 AM 82.8°F28.2°C 66.0°F18.9°C 57% Calm Calm -- 30.14 in1020.7 mb - 0.00 in0.0 mm 0.00 in0.0 mm
07:30 AM 82.0°F27.8°C 65.8°F18.8°C 58% Calm Calm -- 30.14 in1020.7 mb - 0.00 in0.0 mm 0.00 in0.0 mm
07:15 AM 80.2°F26.8°C 65.0°F18.3°C 60% Calm Calm -- 30.14 in1020.7 mb - 0.00 in0.0 mm 0.00 in0.0 mm
07:00 AM 79.0°F26.1°C 65.3°F18.5°C 63% Calm Calm -- 30.14 in1020.7 mb - 0.00 in0.0 mm 0.00 in0.0 mm
06:45 AM 77.8°F25.4°C 64.6°F18.1°C 64% Calm Calm -- 30.15 in1021.0 mb - 0.00 in0.0 mm 0.00 in0.0 mm
06:30 AM 76.0°F24.4°C 63.9°F17.7°C 66% Calm Calm -- 30.15 in1021.0 mb - 0.00 in0.0 mm 0.00 in0.0 mm
06:15 AM 75.4°F24.1°C 63.2°F17.3°C 66% Calm Calm 1.2 mph1.9 kmh 30.15 in1021.0 mb - 0.00 in0.0 mm 0.00 in0.0 mm
06:00 AM 75.0°F23.9°C 62.9°F17.2°C 66% Calm Calm -- 30.14 in1020.7 mb - 0.00 in0.0 mm 0.00 in0.0 mm
05:45 AM 74.9°F23.8°C 62.4°F16.9°C 65% Calm Calm -- 30.14 in1020.7 mb - 0.00 in0.0 mm 0.00 in0.0 mm
05:30 AM 75.0°F23.9°C 62.0°F16.7°C 64% Calm Calm -- 30.14 in1020.7 mb - 0.00 in0.0 mm 0.00 in0.0 mm
05:15 AM 74.1°F23.4°C 61.6°F16.4°C 65% Calm Calm -- 30.14 in1020.7 mb - 0.00 in0.0 mm 0.00 in0.0 mm
05:00 AM 73.9°F23.3°C 61.4°F16.3°C 65% Calm Calm -- 30.13 in1020.3 mb - 0.00 in0.0 mm 0.00 in0.0 mm
04:45 AM 74.9°F23.8°C 61.5°F16.4°C 63% Calm Calm -- 30.13 in1020.3 mb - 0.00 in0.0 mm 0.00 in0.0 mm
04:30 AM 75.4°F24.1°C 61.9°F16.6°C 63% 1.2 mph N1.9 kmh N 1.2 mph1.9 kmh 30.13 in1020.3 mb - 0.00 in0.0 mm 0.00 in0.0 mm
04:15 AM 75.7°F24.3°C 62.2°F16.8°C 63% Calm Calm -- 30.13 in1020.3 mb - 0.00 in0.0 mm 0.00 in0.0 mm
04:00 AM 76.0°F24.4°C 62.5°F16.9°C 63% Calm Calm -- 30.13 in1020.3 mb - 0.00 in0.0 mm 0.00 in0.0 mm
03:45 AM 75.7°F24.3°C 62.6°F17.0°C 64% Calm Calm -- 30.14 in1020.7 mb - 0.00 in0.0 mm 0.00 in0.0 mm
03:30 AM 75.6°F24.2°C 63.0°F17.2°C 65% Calm Calm -- 30.14 in1020.7 mb - 0.00 in0.0 mm 0.00 in0.0 mm
03:15 AM 75.7°F24.3°C 63.1°F17.3°C 65% Calm Calm -- 30.15 in1021.0 mb - 0.00 in0.0 mm 0.00 in0.0 mm
03:00 AM 76.1°F24.5°C 63.5°F17.5°C 65% Calm Calm -- 30.14 in1020.7 mb - 0.00 in0.0 mm 0.00 in0.0 mm
02:45 AM 76.9°F24.9°C 63.3°F17.4°C 63% Calm Calm -- 30.15 in1021.0 mb - 0.00 in0.0 mm 0.00 in0.0 mm
02:30 AM 77.4°F25.2°C 63.3°F17.4°C 62% Calm Calm -- 30.15 in1021.0 mb - 0.00 in0.0 mm 0.00 in0.0 mm
02:15 AM 77.7°F25.4°C 63.2°F17.3°C 61% Calm Calm -- 30.15 in1021.0 mb - 0.00 in0.0 mm 0.00 in0.0 mm
02:00 AM 78.0°F25.6°C 62.5°F16.9°C 59% Calm Calm -- 30.14 in1020.7 mb - 0.00 in0.0 mm 0.00 in0.0 mm
01:45 AM 78.7°F25.9°C 62.2°F16.8°C 57% Calm Calm -- 30.14 in1020.7 mb - 0.00 in0.0 mm 0.00 in0.0 mm
01:30 AM 78.8°F26.0°C 62.3°F16.8°C 57% Calm Calm -- 30.14 in1020.7 mb - 0.00 in0.0 mm 0.00 in0.0 mm
01:15 AM 79.7°F26.5°C 62.6°F17.0°C 56% Calm Calm -- 30.14 in1020.7 mb - 0.00 in0.0 mm 0.00 in0.0 mm
01:00 AM 80.2°F26.8°C 62.5°F16.9°C 55% Calm Calm -- 30.15 in1021.0 mb - 0.00 in0.0 mm 0.00 in0.0 mm
12:45 AM 80.7°F27.1°C 62.5°F16.9°C 54% Calm Calm -- 30.15 in1021.0 mb - 0.00 in0.0 mm 0.00 in0.0 mm
12:30 AM 81.3°F27.4°C 62.6°F17.0°C 53% Calm Calm -- 30.15 in1021.0 mb - 0.00 in0.0 mm 0.00 in0.0 mm
12:15 AM 81.4°F27.4°C 62.7°F17.1°C 53% Calm Calm -- 30.16 in1021.3 mb - 0.00 in0.0 mm 0.00 in0.0 mm
12:00 AM 81.5°F27.5°C 63.3°F17.4°C 54% Calm Calm -- 30.16 in1021.3 mb - 0.00 in0.0 mm 0.00 in0.0 mm